Chippewa Valley Regional Airport Eau Claire US
ICAO: KEAU
IATA: EAU
Category: Medium
Scheduled Services: Yes

Elevation: 913 ft
TransAlt. 18000 ft.

Airport Communications:
MINNEAPOLIS APP/DEP:125.3
ASOS:119.675
GREEN BAY RDO:122.65
CTAF/UNICOM:123

KEAU Zoom In..

If you have problems with the map follow the link
https://www.worldairports.se/pages/airport.php?
ICAO=KEAU

Runways:

(A) RW 04 length 8101 ft width 150 ft
---- / hdg 44

(B) RW 14 length 5000 ft width 100 ft
---- / hdg 138

(C) RW 22 length 8101 ft width 150 ft
ILS 109.50 / hdg 224

(D) RW 32 length 5000 ft width 100 ft
---- / hdg 318

Location; KEAU
Day. 23 / Time. 23.13 Zulu
* Altimeter: 30.03
* Temperature: 00° c. 32°f.
* Wind from: 030° Speed 03 kn.
Dewpoint: -03° c.
Visibility: 2 m.
Clouds: Few 2300 ft.
Clouds: Overcast 5500 ft.
Conditions: Light Snow.

KEAU 232313Z 03003KT 2 1/2SM -SN FEW023 OVC055 00/M03 A3003 RMK AO2 SNB01 P0000 T00001028


Wind From 030°
Speed 03 kn.

 
 
jpsmedia worldairports.se 2020   terms of use